MHS weather

Dunsmuir Muni-Mott Airport
Dunsmuir, California, United States

Public forecast

Using degrees Fahrenheit for public forecast. Weather courtesy of forecast.io.

METAR (pilot weather report)

Closest report is Trinity Center Airport, 25.4 nm (47.1 km) SW. Retrieved 2019/08/21 10:35 UTC (20 minutes ago):

KO86 211035Z AUTO 28005KT 10SM 14/09 A3007 RMK AO1

TAF (pilot weather forecast)

Closest forecast is Redding Municipal Airport, 45.3 nm (83.9 km) S. Retrieved 2019/08/21 06:39 UTC (4 hours ago):

TAF KRDD 210537Z 2106/2206 VRB04KT P6SM SCT100 BKN250 FM212200 19006KT P6SM BKN100 OVC250